Time;durP1;ratioP1;P1;durP2;ratioP2;P2;SDS_P1;SDS_P2;PMS_P1;PMS_P2;Temp;Humidity;BMP_temperature;BMP_pressure;BME280_temperature;BME280_humidity;BME280_pressure;Samples;Min_cycle;Max_cycle;Signal;HPM_P1;HPM_P2
2021/10/30 00:01:11;;;;;;;17.50;8.73;;;;;;;11.99;88.66;100443.50;4975768;28;20088;-80
2021/10/30 00:03:37;;;;;;;14.43;8.38;;;;;;;11.96;87.96;100442.06;4965120;28;20133;-81
2021/10/30 00:06:03;;;;;;;14.10;9.00;;;;;;;11.90;88.57;100434.94;5075921;28;20034;-81
2021/10/30 00:08:29;;;;;;;16.67;10.23;;;;;;;11.74;88.20;100448.03;4996883;28;20042;-79
2021/10/30 00:10:58;;;;;;;20.85;9.50;;;;;;;11.68;88.06;100441.72;4992249;28;20041;-79
2021/10/30 00:13:24;;;;;;;15.18;9.40;;;;;;;11.68;87.54;100426.16;4988192;28;20030;-80
2021/10/30 00:15:50;;;;;;;17.60;9.18;;;;;;;11.64;87.81;100428.28;4984413;28;20041;-79
2021/10/30 00:18:15;;;;;;;15.18;9.32;;;;;;;11.72;87.04;100416.22;4981695;28;20034;-80
2021/10/30 00:20:41;;;;;;;18.58;9.52;;;;;;;11.54;88.10;100429.47;4963524;28;20060;-80
2021/10/30 00:23:07;;;;;;;14.15;9.13;;;;;;;11.59;87.59;100430.56;4989172;28;20038;-79
2021/10/30 00:25:32;;;;;;;16.58;9.27;;;;;;;11.46;88.06;100423.34;4990033;28;20039;-81
2021/10/30 00:27:58;;;;;;;18.50;8.57;;;;;;;11.43;88.46;100431.47;4983679;28;20041;-80
2021/10/30 00:30:23;;;;;;;22.35;9.57;;;;;;;11.48;88.11;100431.75;4992226;28;20126;-80
2021/10/30 00:32:49;;;;;;;15.32;9.50;;;;;;;11.43;87.66;100426.28;4973639;28;20482;-79
2021/10/30 00:35:15;;;;;;;20.52;8.82;;;;;;;11.45;86.61;100426.94;4990940;28;20029;-78
2021/10/30 00:37:40;;;;;;;16.63;9.38;;;;;;;11.43;86.73;100422.88;4991707;28;20060;-78
2021/10/30 00:40:07;;;;;;;17.02;9.13;;;;;;;11.35;86.05;100421.13;4984015;28;20033;-79
2021/10/30 00:42:33;;;;;;;17.63;9.18;;;;;;;11.38;85.72;100407.00;4975935;28;20383;-78
2021/10/30 00:44:58;;;;;;;17.77;9.00;;;;;;;11.37;86.46;100410.56;4982805;28;20060;-78
2021/10/30 00:47:24;;;;;;;17.10;8.18;;;;;;;11.35;86.13;100413.34;4982839;28;20042;-77
2021/10/30 00:49:49;;;;;;;18.95;8.23;;;;;;;11.34;85.74;100411.75;4982426;28;20030;-77
2021/10/30 00:52:15;;;;;;;14.07;8.45;;;;;;;11.24;85.75;100411.91;4990528;28;20042;-77
2021/10/30 00:54:43;;;;;;;15.60;9.30;;;;;;;11.20;85.13;100413.25;4984836;28;20080;-75
2021/10/30 00:57:11;;;;;;;15.02;7.93;;;;;;;11.18;84.42;100404.81;4988777;28;20442;-75
2021/10/30 00:59:38;;;;;;;14.55;8.27;;;;;;;11.21;84.53;100406.28;5003298;28;20554;-76
2021/10/30 01:02:04;;;;;;;20.08;8.57;;;;;;;11.22;83.39;100400.09;4986713;28;20034;-76
2021/10/30 01:04:30;;;;;;;16.67;9.00;;;;;;;11.09;84.20;100395.44;4979161;28;20418;-76
2021/10/30 01:06:57;;;;;;;15.75;8.60;;;;;;;11.03;84.37;100376.19;4993352;28;20038;-76
2021/10/30 01:09:24;;;;;;;15.00;9.20;;;;;;;10.98;84.65;100394.06;4983800;28;20065;-76
2021/10/30 01:11:51;;;;;;;20.90;10.52;;;;;;;11.05;84.85;100396.78;4990126;28;20070;-76
2021/10/30 01:14:18;;;;;;;18.90;10.55;;;;;;;11.07;84.02;100387.03;4966041;28;20424;-77
2021/10/30 01:16:55;;;;;;;21.05;10.70;;;;;;;11.04;84.47;100387.38;4984837;28;20056;-76
2021/10/30 01:19:21;;;;;;;19.02;9.50;;;;;;;11.02;83.86;100382.38;4971428;28;20027;-77
2021/10/30 01:21:47;;;;;;;16.80;9.93;;;;;;;11.12;83.35;100389.94;4989561;28;20093;-76
2021/10/30 01:24:12;;;;;;;17.45;10.20;;;;;;;11.01;83.25;100383.31;4983215;28;20061;-77
2021/10/30 01:26:38;;;;;;;20.13;10.95;;;;;;;10.95;83.22;100378.81;4998336;28;20091;-76
2021/10/30 01:29:04;;;;;;;21.33;11.68;;;;;;;11.02;81.98;100377.19;4979899;28;20514;-77
2021/10/30 01:31:30;;;;;;;18.50;10.70;;;;;;;10.94;82.19;100381.56;4983968;28;20034;-76
2021/10/30 01:33:56;;;;;;;20.58;9.75;;;;;;;11.00;81.96;100381.72;4980851;28;20081;-76
2021/10/30 01:36:22;;;;;;;19.33;9.68;;;;;;;10.94;81.76;100376.38;4986218;28;20521;-75
2021/10/30 01:38:49;;;;;;;18.13;9.88;;;;;;;10.81;82.69;100377.75;4974485;28;20070;-76
2021/10/30 01:41:15;;;;;;;19.35;10.35;;;;;;;10.88;82.04;100370.09;4974924;28;20034;-74
2021/10/30 01:43:41;;;;;;;17.25;9.40;;;;;;;10.83;82.45;100359.41;4985722;28;20395;-75
2021/10/30 01:46:08;;;;;;;18.45;9.07;;;;;;;10.96;81.37;100362.25;4994739;28;20483;-76
2021/10/30 01:48:38;;;;;;;16.63;9.40;;;;;;;10.97;80.72;100356.09;4981607;28;20030;-81
2021/10/30 01:51:06;;;;;;;15.75;8.07;;;;;;;10.83;81.25;100352.44;4980779;28;20039;-75
2021/10/30 01:53:32;;;;;;;19.15;8.88;;;;;;;10.84;81.39;100345.47;4981650;28;20038;-74
2021/10/30 01:55:59;;;;;;;17.70;8.90;;;;;;;10.80;81.13;100344.19;4978621;28;20066;-76
2021/10/30 01:58:24;;;;;;;19.55;8.63;;;;;;;10.79;81.00;100333.00;4980974;28;20046;-76
2021/10/30 02:00:52;;;;;;;17.85;9.50;;;;;;;10.80;81.08;100320.84;4982009;28;20088;-75
2021/10/30 02:03:18;;;;;;;19.35;8.85;;;;;;;10.77;81.43;100318.59;4983268;28;20113;-75
2021/10/30 02:05:44;;;;;;;13.90;7.55;;;;;;;10.77;81.19;100326.38;4973808;28;20065;-75
2021/10/30 02:08:09;;;;;;;15.18;8.50;;;;;;;10.83;80.79;100316.13;4991212;28;20497;-74
2021/10/30 02:10:35;;;;;;;19.48;8.98;;;;;;;10.80;80.85;100300.91;4988611;28;20031;-75
2021/10/30 02:13:01;;;;;;;22.30;9.38;;;;;;;10.76;81.22;100310.00;4983950;28;20486;-75
2021/10/30 02:15:27;;;;;;;15.68;8.93;;;;;;;10.77;81.55;100305.63;4980230;28;20521;-75
2021/10/30 02:17:52;;;;;;;17.52;9.30;;;;;;;10.70;81.47;100300.31;4979097;28;20069;-75
2021/10/30 02:20:19;;;;;;;17.15;8.57;;;;;;;10.81;80.80;100294.75;4979392;28;20341;-77
2021/10/30 02:22:51;;;;;;;19.95;8.57;;;;;;;10.77;80.86;100292.66;4984038;28;20042;-76
2021/10/30 02:25:16;;;;;;;14.18;8.38;;;;;;;10.78;81.13;100294.28;4980581;28;20061;-76
2021/10/30 02:27:42;;;;;;;14.63;8.18;;;;;;;10.76;81.22;100281.47;4987123;28;20071;-75
2021/10/30 02:30:08;;;;;;;17.25;9.18;;;;;;;10.75;81.10;100279.06;4984810;28;20124;-74
2021/10/30 02:32:35;;;;;;;14.75;8.65;;;;;;;10.79;80.68;100285.50;4985973;28;20041;-76
2021/10/30 02:35:00;;;;;;;16.55;9.18;;;;;;;10.73;80.80;100274.03;4981425;28;20062;-75
2021/10/30 02:37:26;;;;;;;19.42;8.82;;;;;;;10.81;80.99;100268.00;4972623;28;20487;-76
2021/10/30 02:39:51;;;;;;;24.38;9.55;;;;;;;10.86;80.33;100263.91;4993721;28;20034;-76
2021/10/30 02:42:17;;;;;;;19.17;9.85;;;;;;;10.74;80.61;100256.69;4998637;28;20095;-76
2021/10/30 02:44:42;;;;;;;15.82;7.80;;;;;;;10.83;80.59;100261.66;4991748;28;20034;-76
2021/10/30 02:47:08;;;;;;;16.33;9.00;;;;;;;10.74;80.67;100248.91;5008819;28;20288;-77
2021/10/30 02:49:34;;;;;;;14.98;7.72;;;;;;;10.71;80.77;100258.63;4978073;28;20535;-75
2021/10/30 02:52:00;;;;;;;14.52;7.93;;;;;;;10.68;80.77;100255.56;4976926;28;20034;-76
2021/10/30 02:54:26;;;;;;;16.33;8.90;;;;;;;10.69;81.11;100249.41;4987504;28;20354;-76
2021/10/30 02:56:52;;;;;;;18.88;8.35;;;;;;;10.71;80.83;100243.06;4981729;28;20061;-76
2021/10/30 02:59:17;;;;;;;14.18;7.85;;;;;;;10.68;80.65;100234.81;4976183;28;20080;-76
2021/10/30 03:01:43;;;;;;;17.58;9.02;;;;;;;10.68;80.88;100237.41;4988378;28;20034;-75
2021/10/30 03:04:08;;;;;;;13.73;8.18;;;;;;;10.81;79.76;100244.66;4987443;28;20080;-75
2021/10/30 03:06:34;;;;;;;17.77;9.50;;;;;;;10.76;80.40;100245.19;4994118;28;20026;-76
2021/10/30 03:08:59;;;;;;;14.35;8.32;;;;;;;10.61;81.24;100239.09;4985620;28;20030;-76
2021/10/30 03:11:25;;;;;;;17.23;8.85;;;;;;;10.67;81.12;100239.22;4978533;28;20441;-76
2021/10/30 03:13:50;;;;;;;13.98;8.15;;;;;;;10.79;80.69;100228.44;4998763;28;20062;-76
2021/10/30 03:16:16;;;;;;;14.55;7.78;;;;;;;10.80;79.98;100224.91;4993698;28;20030;-75
2021/10/30 03:18:42;;;;;;;15.43;8.57;;;;;;;10.76;80.67;100213.25;4978907;28;20426;-75
2021/10/30 03:21:07;;;;;;;16.40;8.40;;;;;;;10.80;79.66;100222.31;4980233;28;20034;-75
2021/10/30 03:23:33;;;;;;;13.15;7.47;;;;;;;10.78;80.26;100211.28;4991241;28;20521;-75
2021/10/30 03:26:00;;;;;;;18.33;7.97;;;;;;;10.72;80.34;100223.16;4986059;28;20076;-75
2021/10/30 03:28:27;;;;;;;13.38;6.85;;;;;;;10.85;79.45;100223.41;4976488;28;20192;-75
2021/10/30 03:30:52;;;;;;;15.07;7.60;;;;;;;10.74;80.14;100226.38;4985913;28;20037;-74
2021/10/30 03:33:18;;;;;;;14.85;7.35;;;;;;;10.64;80.82;100228.38;4990872;28;20030;-75
2021/10/30 03:35:43;;;;;;;12.60;6.80;;;;;;;10.75;80.51;100234.97;4981383;28;20045;-77
2021/10/30 03:38:09;;;;;;;16.95;7.95;;;;;;;10.77;79.60;100225.22;4989176;28;20052;-76
2021/10/30 03:40:34;;;;;;;11.55;7.03;;;;;;;10.74;81.05;100222.97;4968946;28;20030;-76
2021/10/30 03:43:00;;;;;;;13.27;7.13;;;;;;;10.65;80.90;100222.22;4982362;28;20414;-76
2021/10/30 03:45:25;;;;;;;17.25;6.65;;;;;;;10.70;80.83;100219.94;4987179;28;20034;-77
2021/10/30 03:47:51;;;;;;;11.75;7.07;;;;;;;10.63;81.40;100217.19;4996330;28;20049;-77
2021/10/30 03:50:16;;;;;;;13.90;7.25;;;;;;;10.69;81.67;100223.50;4980534;28;20039;-76
2021/10/30 03:52:42;;;;;;;15.43;6.75;;;;;;;10.71;81.77;100216.34;4990932;28;20035;-77
2021/10/30 03:55:09;;;;;;;12.07;6.50;;;;;;;10.73;81.64;100229.16;4996160;28;20471;-76
2021/10/30 03:57:34;;;;;;;12.80;7.13;;;;;;;10.58;82.71;100221.28;4986508;28;20037;-78
2021/10/30 04:00:00;;;;;;;17.25;6.75;;;;;;;10.58;83.18;100219.47;5007028;28;20058;-78
2021/10/30 04:02:26;;;;;;;14.65;7.15;;;;;;;10.46;84.13;100215.66;4995139;28;20422;-79
2021/10/30 04:04:52;;;;;;;18.60;7.65;;;;;;;10.54;84.38;100210.44;4984672;28;20034;-77
2021/10/30 04:07:18;;;;;;;14.20;7.78;;;;;;;10.52;85.03;100214.97;4976857;28;20053;-79
2021/10/30 04:09:44;;;;;;;17.38;7.15;;;;;;;10.45;85.27;100208.84;4976864;28;20068;-78
2021/10/30 04:12:10;;;;;;;18.25;7.57;;;;;;;10.51;85.10;100223.75;4985262;28;20072;-77
2021/10/30 04:14:36;;;;;;;14.40;7.68;;;;;;;10.42;86.22;100217.78;4978236;28;20033;-80
2021/10/30 04:17:02;;;;;;;16.55;7.82;;;;;;;10.36;86.27;100215.06;4987046;28;20023;-79
2021/10/30 04:19:27;;;;;;;15.38;8.35;;;;;;;10.25;87.52;100221.41;4982633;28;20023;-79
2021/10/30 04:21:53;;;;;;;21.75;8.65;;;;;;;10.19;87.80;100220.28;4983198;28;20030;-78
2021/10/30 04:24:18;;;;;;;14.25;8.30;;;;;;;10.22;88.24;100219.94;4977858;28;20681;-80
2021/10/30 04:26:44;;;;;;;21.63;9.02;;;;;;;10.19;88.70;100217.69;4978835;28;20039;-79
2021/10/30 04:29:09;;;;;;;16.45;8.98;;;;;;;10.21;88.94;100217.50;4982982;28;20092;-82
2021/10/30 04:31:35;;;;;;;19.08;9.25;;;;;;;10.11;89.52;100215.13;5065025;28;20042;-84
2021/10/30 04:34:03;;;;;;;20.42;9.25;;;;;;;10.05;89.65;100208.03;4997727;28;20030;-79
2021/10/30 04:36:31;;;;;;;19.45;10.05;;;;;;;10.03;90.10;100202.19;4969305;28;20034;-77
2021/10/30 04:38:58;;;;;;;17.90;10.52;;;;;;;10.06;90.31;100204.47;4969568;28;20070;-83
2021/10/30 04:41:24;;;;;;;23.98;9.95;;;;;;;10.00;90.47;100193.00;4975031;28;20042;-81
2021/10/30 04:43:51;;;;;;;17.55;9.70;;;;;;;10.03;90.59;100199.59;5005798;28;20065;-81
2021/10/30 04:46:19;;;;;;;19.98;10.20;;;;;;;10.07;90.69;100187.94;4990358;28;20455;-81
2021/10/30 04:48:46;;;;;;;17.77;9.57;;;;;;;10.05;90.57;100180.31;4982727;28;20461;-86
2021/10/30 04:51:21;;;;;;;18.70;9.98;;;;;;;10.00;90.96;100171.44;4982804;28;20034;-82
2021/10/30 04:53:46;;;;;;;20.25;10.00;;;;;;;10.01;90.57;100155.75;4983280;28;20501;-80
2021/10/30 04:56:12;;;;;;;19.88;10.05;;;;;;;10.04;90.51;100175.31;4963099;28;20039;-85
2021/10/30 04:58:44;;;;;;;20.42;10.63;;;;;;;9.96;91.48;100159.81;4976943;28;20441;-80
2021/10/30 05:01:14;;;;;;;19.63;9.45;;;;;;;10.05;90.63;100158.81;4978027;28;20031;-79
2021/10/30 05:03:41;;;;;;;14.50;8.43;;;;;;;9.98;90.80;100150.88;4961340;28;20542;-79
2021/10/30 05:06:08;;;;;;;19.25;8.80;;;;;;;10.00;91.05;100154.13;4990587;28;20121;-78
2021/10/30 05:08:33;;;;;;;16.73;9.45;;;;;;;10.03;91.12;100125.28;4978961;28;20341;-83
2021/10/30 05:10:59;;;;;;;17.83;9.98;;;;;;;10.01;91.47;100142.00;4981742;28;20050;-79
2021/10/30 05:13:24;;;;;;;18.05;9.00;;;;;;;9.99;91.62;100151.72;4983267;28;20030;-83
2021/10/30 05:15:50;;;;;;;14.82;7.85;;;;;;;9.90;91.69;100137.97;4986054;28;20062;-80
2021/10/30 05:18:17;;;;;;;16.98;8.32;;;;;;;9.92;91.85;100139.41;4981997;28;20073;-88
2021/10/30 05:20:42;;;;;;;18.20;8.23;;;;;;;9.85;92.12;100138.50;4970904;28;20091;-82
2021/10/30 05:23:08;;;;;;;16.27;8.73;;;;;;;9.88;92.57;100143.31;5015162;28;20042;-84
2021/10/30 05:25:33;;;;;;;17.15;8.82;;;;;;;9.85;92.13;100135.91;4978010;28;20022;-81
2021/10/30 05:27:59;;;;;;;15.38;8.27;;;;;;;9.84;92.43;100142.03;4988738;28;20045;-82
2021/10/30 05:30:25;;;;;;;14.38;8.55;;;;;;;9.84;92.47;100141.25;4989823;28;20053;-81
2021/10/30 05:32:50;;;;;;;14.98;8.48;;;;;;;9.84;92.75;100131.69;4979094;28;20034;-83
2021/10/30 05:35:36;;;;;;;16.20;8.85;;;;;;;9.94;91.79;100127.13;4980923;28;20038;-86
2021/10/30 05:38:13;;;;;;;17.75;8.35;;;;;;;9.83;92.04;100119.72;5055293;28;20077;-81
2021/10/30 05:40:38;;;;;;;18.52;9.00;;;;;;;9.88;91.72;100112.25;4965901;28;20031;-82
2021/10/30 05:43:05;;;;;;;15.95;9.50;;;;;;;9.91;91.68;100108.53;4978544;28;20045;-80
2021/10/30 05:45:31;;;;;;;20.58;9.02;;;;;;;9.90;92.08;100104.31;4961422;28;20387;-78
2021/10/30 05:47:56;;;;;;;15.95;8.82;;;;;;;9.84;92.31;100092.03;4973990;28;20037;-78
2021/10/30 05:50:22;;;;;;;16.85;9.63;;;;;;;9.86;91.68;100103.03;4986016;28;20022;-82
2021/10/30 05:52:47;;;;;;;17.75;9.00;;;;;;;9.84;91.96;100103.19;4982451;28;20077;-78
2021/10/30 05:55:13;;;;;;;15.40;8.95;;;;;;;9.84;92.10;100099.81;4961470;28;20031;-84
2021/10/30 05:57:39;;;;;;;16.27;8.98;;;;;;;9.90;92.04;100097.34;4996172;28;20474;-83
2021/10/30 06:00:05;;;;;;;17.15;9.73;;;;;;;9.87;92.20;100100.28;4983032;28;20046;-86
2021/10/30 06:02:38;;;;;;;17.98;9.77;;;;;;;9.85;92.59;100104.81;4981772;28;20145;-86
2021/10/30 06:05:04;;;;;;;20.75;9.80;;;;;;;9.88;92.46;100104.47;4961801;28;20038;-83
2021/10/30 06:07:29;;;;;;;19.90;11.38;;;;;;;9.85;92.50;100102.22;4961943;28;20038;-80
2021/10/30 06:09:55;;;;;;;21.77;10.45;;;;;;;9.93;92.61;100103.97;4977242;28;20034;-78
2021/10/30 06:12:20;;;;;;;19.60;11.07;;;;;;;9.88;92.59;100101.06;5000140;28;20095;-83
2021/10/30 06:14:45;;;;;;;19.38;10.98;;;;;;;9.91;93.17;100109.31;4965552;28;20038;-84
2021/10/30 06:17:11;;;;;;;19.10;11.50;;;;;;;9.88;93.09;100104.47;4990022;28;20038;-81
2021/10/30 06:19:36;;;;;;;25.50;11.88;;;;;;;9.81;93.01;100094.94;4969989;28;20030;-77
2021/10/30 06:22:02;;;;;;;19.33;10.23;;;;;;;9.83;93.07;100101.59;4985450;28;20034;-80
2021/10/30 06:24:27;;;;;;;22.80;10.82;;;;;;;9.91;92.56;100098.16;4959882;28;20057;-81
2021/10/30 06:26:53;;;;;;;21.25;10.80;;;;;;;9.82;92.93;100097.38;4990297;28;20041;-77
2021/10/30 06:29:18;;;;;;;21.15;11.63;;;;;;;9.86;92.93;100088.28;4983970;28;20030;-81
2021/10/30 06:31:44;;;;;;;20.40;11.23;;;;;;;9.82;93.18;100099.16;4984211;28;20058;-78
2021/10/30 06:34:10;;;;;;;19.65;11.13;;;;;;;9.75;93.78;100093.84;4980295;28;20042;-81
2021/10/30 06:36:36;;;;;;;29.42;11.65;;;;;;;9.80;93.61;100104.50;4987619;28;20038;-83
2021/10/30 06:39:02;;;;;;;20.80;11.50;;;;;;;9.89;92.85;100097.53;4984753;28;20030;-78
2021/10/30 06:41:27;;;;;;;24.73;11.05;;;;;;;9.87;93.13;100102.03;4984795;28;20151;-83
2021/10/30 06:43:52;;;;;;;19.90;10.07;;;;;;;9.92;92.70;100097.97;4991341;28;20041;-80
2021/10/30 06:46:18;;;;;;;17.75;9.32;;;;;;;9.88;93.22;100098.50;4977043;28;20030;-84
2021/10/30 06:48:43;;;;;;;16.65;10.70;;;;;;;9.89;93.45;100098.31;5055986;28;20500;-80
2021/10/30 06:51:11;;;;;;;21.98;10.70;;;;;;;9.87;93.42;100094.28;4988269;28;20038;-84
2021/10/30 06:53:37;;;;;;;23.02;9.88;;;;;;;9.89;93.49;100093.16;4986964;28;20393;-84
2021/10/30 06:56:02;;;;;;;17.67;8.85;;;;;;;9.92;93.80;100092.00;4981498;28;20027;-85
2021/10/30 06:58:29;;;;;;;20.55;11.00;;;;;;;9.93;93.74;100086.66;4978813;28;20100;-78
2021/10/30 07:00:57;;;;;;;19.33;10.77;;;;;;;9.92;94.14;100077.25;4986870;28;20046;-83
2021/10/30 07:03:22;;;;;;;24.70;11.73;;;;;;;9.87;94.30;100081.31;4984428;28;20070;-83
2021/10/30 07:05:48;;;;;;;24.23;11.77;;;;;;;9.99;94.35;100077.41;4996996;28;20084;-80
2021/10/30 07:08:14;;;;;;;24.80;13.18;;;;;;;10.09;93.73;100079.78;4979669;28;20041;-80
2021/10/30 07:10:39;;;;;;;24.90;12.90;;;;;;;10.05;93.60;100074.13;4975549;28;20129;-80
2021/10/30 07:13:05;;;;;;;24.20;12.68;;;;;;;10.04;93.63;100069.94;4970176;28;20042;-85
2021/10/30 07:15:31;;;;;;;24.77;13.13;;;;;;;10.05;93.51;100081.09;4992014;28;20502;-80
2021/10/30 07:17:56;;;;;;;22.63;13.45;;;;;;;9.98;94.10;100075.78;4980441;28;20045;-80
2021/10/30 07:20:22;;;;;;;25.83;13.77;;;;;;;10.09;93.82;100077.19;4975595;28;20034;-77
2021/10/30 07:22:49;;;;;;;18.42;10.30;;;;;;;10.22;93.51;100081.81;4988426;28;20471;-77
2021/10/30 07:25:17;;;;;;;17.35;9.93;;;;;;;10.22;93.55;100063.69;4980072;28;20039;-79
2021/10/30 07:27:43;;;;;;;19.90;11.10;;;;;;;10.14;93.47;100069.72;4992646;28;20121;-85
2021/10/30 07:30:10;;;;;;;17.00;9.23;;;;;;;10.17;93.69;100077.16;4967594;28;20121;-83
2021/10/30 07:32:36;;;;;;;19.15;9.23;;;;;;;10.20;93.70;100069.03;4995140;28;20046;-85
2021/10/30 07:35:02;;;;;;;14.55;8.38;;;;;;;10.27;93.58;100071.75;4973302;28;20034;-80
2021/10/30 07:37:29;;;;;;;17.15;9.68;;;;;;;10.27;93.34;100072.53;5004082;28;20052;-83
2021/10/30 07:39:55;;;;;;;20.45;10.27;;;;;;;10.22;93.93;100071.44;5014315;28;20042;-79
2021/10/30 07:42:20;;;;;;;16.95;9.40;;;;;;;10.31;92.94;100075.63;4988719;28;20458;-80
2021/10/30 07:44:46;;;;;;;14.85;7.35;;;;;;;10.42;92.32;100069.25;4979063;28;20063;-76
2021/10/30 07:47:12;;;;;;;12.77;7.80;;;;;;;10.45;92.25;100069.72;4984257;28;20034;-78
2021/10/30 07:49:39;;;;;;;13.25;7.72;;;;;;;10.45;91.45;100066.31;5008486;28;20711;-80
2021/10/30 07:52:06;;;;;;;12.90;7.47;;;;;;;10.46;91.48;100060.94;4992998;28;20060;-79
2021/10/30 07:54:33;;;;;;;11.23;7.18;;;;;;;10.35;91.93;100065.75;4992110;28;20038;-82
2021/10/30 07:56:59;;;;;;;14.30;6.63;;;;;;;10.42;90.87;100069.25;4983084;28;20034;-79
2021/10/30 07:59:25;;;;;;;15.43;6.68;;;;;;;10.49;90.17;100065.81;4975169;28;20501;-77
2021/10/30 08:01:52;;;;;;;16.00;8.10;;;;;;;10.45;90.80;100066.31;4985209;28;20026;-80
2021/10/30 08:04:20;;;;;;;13.60;7.57;;;;;;;10.47;90.03;100072.13;4981548;28;20259;-80
2021/10/30 08:06:45;;;;;;;12.60;6.47;;;;;;;10.45;89.54;100067.13;4984224;28;20117;-81
2021/10/30 08:09:11;;;;;;;11.82;8.00;;;;;;;10.37;89.38;100071.56;4979751;28;20030;-82
2021/10/30 08:11:36;;;;;;;12.27;7.15;;;;;;;10.38;89.37;100061.03;4975456;28;20483;-78
2021/10/30 08:14:02;;;;;;;12.38;7.43;;;;;;;10.37;89.90;100061.97;4976622;28;20410;-79
2021/10/30 08:16:28;;;;;;;15.07;7.93;;;;;;;10.42;89.53;100064.06;4984947;28;20091;-80
2021/10/30 08:18:54;;;;;;;16.25;7.90;;;;;;;10.35;89.28;100052.78;4998370;28;20066;-80
2021/10/30 08:21:20;;;;;;;14.20;8.23;;;;;;;10.36;89.37;100057.78;4982244;28;20090;-78
2021/10/30 08:23:46;;;;;;;17.85;8.63;;;;;;;10.44;89.47;100049.94;5011024;28;20030;-80
2021/10/30 08:26:12;;;;;;;18.98;8.68;;;;;;;10.42;89.75;100048.53;4992796;28;20160;-80
2021/10/30 08:28:38;;;;;;;14.63;8.35;;;;;;;10.36;89.84;100046.59;4994496;28;20363;-82
2021/10/30 08:31:03;;;;;;;12.90;7.80;;;;;;;10.48;88.34;100045.22;5045989;28;20399;-78
2021/10/30 08:33:29;;;;;;;15.02;7.97;;;;;;;10.43;89.18;100050.13;4986658;28;20510;-78
2021/10/30 08:35:54;;;;;;;16.48;8.77;;;;;;;10.46;89.40;100052.38;4972783;28;20196;-77
2021/10/30 08:38:20;;;;;;;12.65;7.78;;;;;;;10.55;88.66;100059.13;4994415;28;20033;-77
2021/10/30 08:40:45;;;;;;;18.42;8.50;;;;;;;10.57;88.76;100054.56;4980554;28;20576;-78
2021/10/30 08:43:22;;;;;;;16.15;7.93;;;;;;;10.57;89.35;100051.97;4969483;28;20074;-75
2021/10/30 08:45:50;;;;;;;16.58;8.90;;;;;;;10.55;89.73;100046.16;4977560;28;20369;-78
2021/10/30 08:48:18;;;;;;;18.45;8.18;;;;;;;10.56;89.95;100034.78;4986048;28;20121;-76
2021/10/30 08:50:44;;;;;;;15.90;7.00;;;;;;;10.62;90.66;100041.88;4982671;28;20383;-77
2021/10/30 08:53:09;;;;;;;17.27;7.13;;;;;;;10.77;90.23;100039.31;5005519;28;20034;-77
2021/10/30 08:55:35;;;;;;;12.77;7.40;;;;;;;10.78;90.25;100040.13;4992361;28;20121;-78
2021/10/30 08:58:05;;;;;;;12.40;7.22;;;;;;;10.76;90.11;100039.50;4984646;28;20410;-75
2021/10/30 09:00:31;;;;;;;15.23;7.47;;;;;;;10.74;90.20;100039.69;4986259;28;20113;-76
2021/10/30 09:02:59;;;;;;;17.23;7.57;;;;;;;10.80;90.30;100043.34;4986421;28;20597;-77
2021/10/30 09:05:25;;;;;;;14.73;6.50;;;;;;;10.91;90.38;100042.94;4978279;28;20047;-78
2021/10/30 09:07:59;;;;;;;11.60;7.00;;;;;;;10.90;90.52;100049.09;4972762;28;20062;-77
2021/10/30 09:10:30;;;;;;;11.05;7.00;;;;;;;10.84;91.12;100050.59;4994506;28;20034;-81
2021/10/30 09:12:57;;;;;;;10.98;5.78;;;;;;;10.83;91.44;100038.63;4979452;28;20171;-78
2021/10/30 09:15:37;;;;;;;11.88;6.13;;;;;;;10.84;91.91;100039.44;4993329;28;20037;-77
2021/10/30 09:18:17;;;;;;;13.52;5.60;;;;;;;10.93;92.21;100035.78;4987162;28;20045;-77
2021/10/30 09:20:43;;;;;;;14.73;6.35;;;;;;;10.89;92.90;100040.50;4989644;28;20057;-79
2021/10/30 09:23:09;;;;;;;10.68;5.43;;;;;;;10.94;93.35;100032.19;4989687;28;20038;-80
2021/10/30 09:25:34;;;;;;;10.38;5.20;;;;;;;11.03;93.44;100030.34;4976558;28;20035;-76
2021/10/30 09:28:01;;;;;;;12.98;5.20;;;;;;;11.11;93.75;100022.47;4981357;28;20037;-78
2021/10/30 09:30:31;;;;;;;10.27;4.18;;;;;;;11.15;93.83;100022.91;5012989;28;20037;-80
2021/10/30 09:32:59;;;;;;;7.25;3.58;;;;;;;11.28;94.13;100021.31;5008989;28;20594;-80
2021/10/30 09:35:33;;;;;;;16.48;4.50;;;;;;;11.34;94.07;100017.19;4971677;28;20096;-84
2021/10/30 09:37:59;;;;;;;9.75;4.18;;;;;;;11.35;94.52;100011.00;4965430;28;20478;-78
2021/10/30 09:40:27;;;;;;;6.10;3.42;;;;;;;11.53;94.08;100017.59;4981403;28;20013;-77
2021/10/30 09:43:07;;;;;;;4.93;3.13;;;;;;;11.58;93.87;100016.09;4975716;28;20530;-84
2021/10/30 09:45:46;;;;;;;4.60;2.95;;;;;;;11.65;93.62;100010.97;4989710;28;20030;-86
2021/10/30 09:48:12;;;;;;;5.40;3.53;;;;;;;11.79;92.77;100006.72;5075383;28;20073;-80
2021/10/30 09:50:38;;;;;;;6.18;3.15;;;;;;;11.86;92.33;100003.22;4994016;28;20018;-77
2021/10/30 09:53:26;;;;;;;4.97;2.50;;;;;;;12.04;92.00;100005.44;4989857;28;20037;-76
2021/10/30 09:55:53;;;;;;;12.25;3.80;;;;;;;11.95;92.42;100006.53;4978519;28;20077;-76
2021/10/30 09:58:47;;;;;;;8.48;3.40;;;;;;;12.13;91.77;100013.94;4970214;28;20030;-81
2021/10/30 10:01:14;;;;;;;5.72;2.30;;;;;;;12.08;91.99;100016.28;4994931;28;20061;-86
2021/10/30 10:03:50;;;;;;;4.70;2.97;;;;;;;12.05;92.39;100012.25;4961790;28;20058;-80
2021/10/30 10:06:23;;;;;;;5.78;2.92;;;;;;;12.02;92.25;100011.81;4982374;28;20043;-85
2021/10/30 10:08:50;;;;;;;5.70;2.78;;;;;;;12.07;92.30;100009.47;4986455;28;20042;-82
2021/10/30 10:11:18;;;;;;;5.65;2.80;;;;;;;12.15;92.65;100006.75;5002132;28;20460;-78
2021/10/30 10:13:49;;;;;;;3.35;2.05;;;;;;;12.09;92.03;99999.69;4976644;28;20039;-81
2021/10/30 10:16:16;;;;;;;5.97;2.97;;;;;;;12.17;92.18;100007.38;4978061;28;20594;-78
2021/10/30 10:18:43;;;;;;;6.38;3.40;;;;;;;12.18;92.53;100000.38;4982407;28;20039;-81
2021/10/30 10:21:12;;;;;;;7.80;4.25;;;;;;;12.19;92.39;100000.19;4991346;28;20034;-79
2021/10/30 10:23:42;;;;;;;4.95;2.70;;;;;;;12.19;92.19;99999.41;4996017;28;20409;-86
2021/10/30 10:26:09;;;;;;;6.32;3.42;;;;;;;12.22;92.58;99999.00;4977607;28;20482;-77
2021/10/30 10:28:36;;;;;;;4.57;2.10;;;;;;;12.19;92.23;100000.19;4991330;28;20065;-86
2021/10/30 10:31:22;;;;;;;6.45;3.45;;;;;;;12.12;93.20;99994.13;4965553;28;20061;-85
2021/10/30 10:34:08;;;;;;;5.10;2.28;;;;;;;12.13;93.32;99993.16;4988089;28;20030;-83
2021/10/30 10:36:35;;;;;;;7.10;2.35;;;;;;;12.27;92.13;99987.06;4981286;28;20031;-77
2021/10/30 10:39:00;;;;;;;5.57;1.80;;;;;;;12.23;92.28;99988.44;4985312;28;20048;-79
2021/10/30 10:41:38;;;;;;;5.18;1.90;;;;;;;12.24;92.08;99987.44;4982231;28;20138;-86
2021/10/30 10:44:04;;;;;;;4.57;2.10;;;;;;;12.23;92.61;99982.44;4985803;28;20487;-79
2021/10/30 10:46:30;;;;;;;3.60;1.98;;;;;;;12.27;92.55;99978.47;5015889;28;20072;-82
2021/10/30 10:49:30;;;;;;;4.28;1.90;;;;;;;12.30;92.12;99964.28;4985753;28;20088;-85
2021/10/30 10:52:25;;;;;;;6.55;2.47;;;;;;;12.27;92.32;99971.47;4989603;28;20037;-77
2021/10/30 10:55:01;;;;;;;9.65;4.32;;;;;;;12.30;92.40;99966.88;4971744;28;20042;-76
2021/10/30 10:57:30;;;;;;;6.88;3.33;;;;;;;12.27;92.56;99957.66;5058501;28;20030;-79
2021/10/30 11:00:09;;;;;;;5.07;2.10;;;;;;;12.22;92.87;99955.66;4968775;28;20066;-83
2021/10/30 11:02:40;;;;;;;3.65;2.10;;;;;;;12.34;91.87;99947.31;4999769;28;20045;-79
2021/10/30 11:05:08;;;;;;;5.90;1.90;;;;;;;12.32;90.83;99946.69;4975979;28;20423;-82
2021/10/30 11:07:49;;;;;;;3.53;2.13;;;;;;;12.31;91.51;99950.31;4976374;28;20033;-83
2021/10/30 11:10:19;;;;;;;3.33;1.88;;;;;;;12.36;90.97;99946.16;4978343;28;20023;-78
2021/10/30 11:13:00;;;;;;;5.07;2.00;;;;;;;12.33;90.74;99940.53;4993025;28;20037;-80
2021/10/30 11:15:40;;;;;;;7.25;2.25;;;;;;;12.36;90.85;99934.97;4958888;28;20077;-78
2021/10/30 11:18:20;;;;;;;6.32;2.65;;;;;;;12.29;91.01;99934.91;4995523;28;20035;-83
2021/10/30 11:21:07;;;;;;;6.70;2.38;;;;;;;12.27;90.69;99931.69;4971379;28;20046;-82